Time;durP1;ratioP1;P1;durP2;ratioP2;P2;SDS_P1;SDS_P2;PMS_P1;PMS_P2;Temp;Humidity;BMP_temperature;BMP_pressure;BME280_temperature;BME280_humidity;BME280_pressure;Samples;Min_cycle;Max_cycle;Signal;HPM_P1;HPM_P2
2022/06/10 00:01:18;;;;;;;10.35;6.85;;;;;;;16.73;100.00;92331.81;5165399;27;20412;-87
2022/06/10 00:03:47;;;;;;;7.53;5.75;;;;;;;16.77;100.00;92338.03;5165386;27;20042;-87
2022/06/10 00:06:16;;;;;;;7.25;5.57;;;;;;;16.78;100.00;92328.41;5165147;27;20042;-87
2022/06/10 00:08:45;;;;;;;9.10;5.68;;;;;;;16.82;100.00;92342.41;5163472;27;20579;-87
2022/06/10 00:11:13;;;;;;;7.10;4.65;;;;;;;16.79;100.00;92329.97;5164552;27;20039;-87
2022/06/10 00:13:42;;;;;;;7.25;4.80;;;;;;;16.78;100.00;92321.41;5163201;27;20043;-87
2022/06/10 00:16:09;;;;;;;6.15;4.53;;;;;;;16.58;100.00;92291.22;5164876;27;20408;-87
2022/06/10 00:18:37;;;;;;;6.07;4.53;;;;;;;16.74;100.00;92314.44;5162761;27;20064;-87
2022/06/10 00:21:08;;;;;;;6.60;4.30;;;;;;;16.77;100.00;92326.88;5163998;27;20049;-87
2022/06/10 00:23:38;;;;;;;6.28;3.70;;;;;;;16.72;100.00;92322.50;5167011;27;21154;-86
2022/06/10 00:26:05;;;;;;;5.15;3.53;;;;;;;16.60;100.00;92324.63;5166496;27;20392;-87
2022/06/10 00:28:33;;;;;;;5.15;4.25;;;;;;;16.58;100.00;92324.91;5165532;27;20054;-88
2022/06/10 00:31:00;;;;;;;4.85;3.75;;;;;;;16.64;100.00;92336.03;5164492;27;20541;-87
2022/06/10 00:33:26;;;;;;;5.20;3.80;;;;;;;16.68;100.00;92334.44;5166642;27;20095;-86
2022/06/10 00:35:54;;;;;;;5.88;4.07;;;;;;;16.65;100.00;92334.97;5164764;27;20043;-88
2022/06/10 00:38:20;;;;;;;5.93;4.47;;;;;;;16.64;100.00;92326.44;5167117;27;20046;-87
2022/06/10 00:40:52;;;;;;;6.72;4.63;;;;;;;16.67;100.00;92323.28;5164903;27;20416;-87
2022/06/10 00:43:22;;;;;;;8.38;4.45;;;;;;;16.60;100.00;92312.47;5165765;27;20494;-87
2022/06/10 00:46:16;;;;;;;5.68;3.97;;;;;;;16.71;100.00;92323.53;5164467;27;20050;-87
2022/06/10 00:48:54;;;;;;;4.93;4.20;;;;;;;16.75;100.00;92328.97;5163132;27;20107;-87
2022/06/10 00:51:27;;;;;;;5.03;4.22;;;;;;;16.78;100.00;92328.41;5166093;27;20042;-87
2022/06/10 00:54:02;;;;;;;5.22;4.00;;;;;;;16.82;100.00;92324.25;5164139;27;20051;-88
2022/06/10 00:56:30;;;;;;;6.10;4.20;;;;;;;16.82;100.00;92332.78;5166045;27;20106;-86
2022/06/10 00:59:01;;;;;;;4.50;2.92;;;;;;;16.78;100.00;92326.63;5167904;27;20051;-87
2022/06/10 01:01:31;;;;;;;5.07;3.65;;;;;;;16.66;100.00;92313.22;5169924;27;20069;-87
2022/06/10 01:03:58;;;;;;;5.38;3.40;;;;;;;16.73;100.00;92324.03;5164566;27;20050;-87
2022/06/10 01:06:27;;;;;;;4.65;3.70;;;;;;;16.69;100.00;92315.25;5166656;27;20046;-87
2022/06/10 01:08:56;;;;;;;7.15;3.97;;;;;;;16.74;100.00;92330.00;5163509;27;20042;-87
2022/06/10 01:11:45;;;;;;;4.85;3.58;;;;;;;16.78;100.00;92334.38;5163965;27;20045;-86
2022/06/10 01:14:28;;;;;;;7.22;3.80;;;;;;;16.78;100.00;92331.00;5163798;27;20039;-87
2022/06/10 01:17:10;;;;;;;6.18;4.32;;;;;;;16.77;100.00;92334.66;5163421;27;20046;-88
2022/06/10 01:20:03;;;;;;;6.57;4.30;;;;;;;16.70;100.00;92316.78;5164743;27;20070;-88
2022/06/10 01:22:55;;;;;;;6.95;5.00;;;;;;;16.61;100.00;92310.66;5162396;27;20401;-89
2022/06/10 01:26:04;;;;;;;9.68;5.07;;;;;;;16.73;100.00;92328.44;5165465;27;20046;-87
2022/06/10 01:28:55;;;;;;;9.50;5.32;;;;;;;16.49;100.00;92327.31;5147975;27;20043;-86
2022/06/10 01:31:29;;;;;;;7.15;4.40;;;;;;;16.52;100.00;92328.59;5165226;27;20050;-87
2022/06/10 01:34:10;;;;;;;6.18;4.63;;;;;;;16.41;100.00;92323.47;5163151;27;20050;-87
2022/06/10 01:36:48;;;;;;;5.82;4.50;;;;;;;16.34;100.00;92328.13;5162162;27;20484;-87
2022/06/10 01:39:31;;;;;;;7.05;4.30;;;;;;;16.37;100.00;92330.22;5164086;27;20107;-85
2022/06/10 01:42:11;;;;;;;6.65;3.97;;;;;;;16.33;100.00;92315.47;5162966;27;20043;-86
2022/06/10 01:44:46;;;;;;;4.47;3.47;;;;;;;16.38;100.00;92323.97;5162219;27;20473;-87
2022/06/10 01:47:20;;;;;;;4.53;3.33;;;;;;;16.42;100.00;92329.41;5163538;27;20035;-87
2022/06/10 01:49:54;;;;;;;5.07;3.85;;;;;;;16.42;100.00;92329.41;5163058;27;20053;-86
2022/06/10 01:52:25;;;;;;;4.75;3.22;;;;;;;16.38;100.00;92326.56;5163284;27;20411;-88
2022/06/10 01:55:01;;;;;;;3.65;2.95;;;;;;;16.45;100.00;92328.88;5160691;27;20055;-87
2022/06/10 01:57:32;;;;;;;4.47;3.40;;;;;;;16.45;100.00;92336.66;5162036;27;20038;-86
2022/06/10 02:00:04;;;;;;;4.57;2.90;;;;;;;16.42;100.00;92334.59;5162220;27;20049;-85
2022/06/10 02:02:37;;;;;;;5.15;3.67;;;;;;;16.41;100.00;92333.03;5165462;27;20095;-85
2022/06/10 02:08:33;;;;;;;6.20;4.70;;;;;;;16.32;100.00;92334.63;5162447;27;20045;-83
2022/06/10 02:11:05;;;;;;;6.80;4.65;;;;;;;16.26;100.00;92331.31;5176571;27;20073;-86
2022/06/10 02:13:36;;;;;;;7.82;5.30;;;;;;;16.34;100.00;92337.75;5175282;27;20034;-89
2022/06/10 02:16:06;;;;;;;8.00;5.75;;;;;;;16.37;100.00;92339.78;5176147;27;20046;-87
2022/06/10 02:18:41;;;;;;;8.00;5.75;;;;;;;16.34;100.00;92345.53;5176175;27;20437;-87
2022/06/10 02:21:13;;;;;;;9.05;6.10;;;;;;;16.37;100.00;92337.97;5175878;27;20042;-87
2022/06/10 02:23:48;;;;;;;6.88;5.82;;;;;;;16.39;100.00;92343.66;5176118;27;20045;-87
2022/06/10 02:26:17;;;;;;;7.33;5.57;;;;;;;16.45;100.00;92344.44;5174797;27;20408;-87
2022/06/10 02:28:49;;;;;;;8.02;5.78;;;;;;;16.45;100.00;92343.66;5174102;27;20298;-87
2022/06/10 02:31:19;;;;;;;10.32;7.68;;;;;;;16.46;100.00;92355.56;5174516;27;20427;-87
2022/06/10 02:33:49;;;;;;;8.40;6.35;;;;;;;16.47;100.00;92352.72;5176050;27;20042;-88
2022/06/10 02:36:22;;;;;;;9.30;5.80;;;;;;;16.42;100.00;92345.75;5175918;27;20070;-89
2022/06/10 02:39:01;;;;;;;13.65;7.80;;;;;;;16.49;100.00;92355.03;5176017;27;20128;-88
2022/06/10 02:41:36;;;;;;;10.40;6.82;;;;;;;16.47;100.00;92352.72;5174423;27;20034;-86
2022/06/10 02:44:10;;;;;;;14.07;8.95;;;;;;;16.47;100.00;92349.34;5174553;27;20143;-87
2022/06/10 02:46:43;;;;;;;15.52;9.85;;;;;;;16.54;100.00;92355.78;5176084;27;20095;-86
2022/06/10 02:49:14;;;;;;;21.38;12.93;;;;;;;16.54;100.00;92352.41;5175861;27;20046;-86
2022/06/10 02:51:42;;;;;;;22.00;11.75;;;;;;;16.04;100.00;92275.44;5175650;27;20038;-86
2022/06/10 02:54:19;;;;;;;16.42;10.25;;;;;;;16.55;100.00;92356.56;5175450;27;20098;-88
2022/06/10 02:56:46;;;;;;;17.92;10.95;;;;;;;16.55;100.00;92359.94;5173912;27;20046;-87
2022/06/10 03:02:20;;;;;;;11.65;7.30;;;;;;;16.60;100.00;92361.72;5175441;27;20193;-87
2022/06/10 03:04:59;;;;;;;8.63;6.05;;;;;;;16.53;100.00;92350.88;5173713;27;20069;-87
2022/06/10 03:07:40;;;;;;;9.90;5.60;;;;;;;16.56;100.00;92353.69;5175299;27;20073;-87
2022/06/10 03:10:17;;;;;;;7.10;5.22;;;;;;;16.63;100.00;92363.00;5174516;27;20046;-88
2022/06/10 03:12:56;;;;;;;8.55;5.35;;;;;;;16.66;100.00;92360.63;5175191;27;20050;-87
2022/06/10 03:15:40;;;;;;;6.65;5.25;;;;;;;16.67;100.00;92364.78;5174243;27;20046;-88
2022/06/10 03:18:15;;;;;;;6.63;4.88;;;;;;;16.68;100.00;92368.91;5174561;27;20524;-88
2022/06/10 03:20:52;;;;;;;7.07;5.15;;;;;;;16.72;100.00;92365.81;5176013;27;20129;-88
2022/06/10 03:23:29;;;;;;;5.95;4.25;;;;;;;16.69;100.00;92372.28;5173527;27;20492;-87
2022/06/10 03:26:03;;;;;;;5.72;4.40;;;;;;;16.65;100.00;92372.06;5174111;27;20077;-87
2022/06/10 03:28:39;;;;;;;8.55;4.53;;;;;;;16.69;100.00;92369.69;5174824;27;20049;-89
2022/06/10 03:31:14;;;;;;;6.68;4.70;;;;;;;16.68;100.00;92374.09;5173256;27;20054;-87
2022/06/10 03:33:47;;;;;;;8.52;4.53;;;;;;;16.68;100.00;92371.50;5173606;27;20083;-88
2022/06/10 03:36:18;;;;;;;5.95;4.13;;;;;;;16.68;100.00;92378.53;5175246;27;20054;-87
2022/06/10 03:38:48;;;;;;;6.90;4.80;;;;;;;16.62;100.00;92372.59;5174630;27;20652;-87
2022/06/10 03:41:21;;;;;;;7.65;4.65;;;;;;;16.69;100.00;92380.06;5174606;27;20042;-88
2022/06/10 03:43:50;;;;;;;6.57;4.72;;;;;;;16.56;100.00;92365.88;5174554;27;20083;-86
2022/06/10 03:46:19;;;;;;;6.82;4.72;;;;;;;16.68;100.00;92384.47;5173918;27;21813;-90
2022/06/10 03:48:47;;;;;;;9.50;4.85;;;;;;;16.68;100.00;92383.72;5174632;27;20519;-87
2022/06/10 03:51:18;;;;;;;7.03;4.70;;;;;;;16.56;100.00;92371.06;5173372;27;20038;-88
2022/06/10 03:53:45;;;;;;;6.55;4.57;;;;;;;16.67;100.00;92382.16;5174945;27;20045;-88
2022/06/10 03:56:13;;;;;;;7.72;5.30;;;;;;;16.64;100.00;92383.47;5172641;27;20094;-87
2022/06/10 03:58:41;;;;;;;8.05;4.60;;;;;;;16.65;100.00;92387.63;5162225;27;20046;-88
2022/06/10 04:01:08;;;;;;;7.97;4.45;;;;;;;16.72;100.00;92386.53;5173589;27;20038;-87
2022/06/10 04:03:35;;;;;;;6.60;4.72;;;;;;;16.59;100.00;92364.56;5171805;27;20053;-87
2022/06/10 04:06:02;;;;;;;7.05;4.95;;;;;;;16.69;100.00;92386.03;5171304;27;20087;-87
2022/06/10 04:08:31;;;;;;;8.30;4.85;;;;;;;16.72;100.00;92386.53;5174254;27;20038;-88
2022/06/10 04:10:57;;;;;;;7.18;4.90;;;;;;;16.74;100.00;92382.63;5172657;27;20046;-87
2022/06/10 04:13:25;;;;;;;6.40;3.97;;;;;;;16.61;100.00;92358.06;5169813;27;20057;-88
2022/06/10 04:15:52;;;;;;;5.90;4.60;;;;;;;16.76;100.00;92387.56;5170752;27;20453;-88
2022/06/10 04:18:19;;;;;;;9.05;5.00;;;;;;;16.78;100.00;92380.28;5174557;27;20050;-89
2022/06/10 04:20:46;;;;;;;7.43;4.55;;;;;;;16.69;100.00;92374.88;5174444;27;20157;-88
2022/06/10 04:23:14;;;;;;;6.32;4.68;;;;;;;16.74;100.00;92377.47;5175746;27;20043;-89
2022/06/10 04:25:44;;;;;;;6.93;5.03;;;;;;;16.69;100.00;92380.88;5179543;27;20523;-88
2022/06/10 04:28:12;;;;;;;8.70;5.40;;;;;;;16.72;100.00;92379.56;5181920;27;20039;-89
2022/06/10 04:30:41;;;;;;;9.70;5.43;;;;;;;16.73;100.00;92382.91;5192507;27;20046;-90
2022/06/10 04:33:08;;;;;;;7.43;5.45;;;;;;;16.73;100.00;92377.72;5183044;27;20090;-88
2022/06/10 04:35:37;;;;;;;9.15;5.22;;;;;;;16.21;100.00;92313.19;5173955;27;20448;-88
2022/06/10 04:38:04;;;;;;;7.90;5.68;;;;;;;16.67;100.00;92382.16;5173800;27;20042;-89
2022/06/10 04:40:32;;;;;;;9.23;6.45;;;;;;;16.50;100.00;92357.38;5173332;27;20046;-89
2022/06/10 04:43:01;;;;;;;7.93;5.82;;;;;;;16.61;100.00;92388.44;5171724;27;20046;-88
2022/06/10 04:45:30;;;;;;;10.00;6.07;;;;;;;16.50;100.00;92387.69;5172893;27;20046;-88
2022/06/10 04:47:58;;;;;;;8.68;5.35;;;;;;;16.55;100.00;92382.47;5171060;27;20050;-88
2022/06/10 04:50:27;;;;;;;6.97;5.28;;;;;;;16.61;100.00;92393.63;5172896;27;20052;-88
2022/06/10 04:52:55;;;;;;;8.05;6.05;;;;;;;16.56;100.00;92394.41;5171558;27;20095;-87
2022/06/10 04:55:23;;;;;;;10.48;6.93;;;;;;;16.61;100.00;92396.22;5173374;27;20058;-89
2022/06/10 04:57:50;;;;;;;12.18;8.40;;;;;;;16.66;100.00;92383.97;5173033;27;20042;-89
2022/06/10 05:00:21;;;;;;;12.43;8.13;;;;;;;16.75;100.00;92401.59;5168541;27;20054;-89
2022/06/10 05:02:47;;;;;;;10.60;7.82;;;;;;;16.86;100.00;92407.47;5172822;27;20034;-89
2022/06/10 05:05:15;;;;;;;12.50;8.07;;;;;;;16.91;100.00;92402.25;5170880;27;20094;-87
2022/06/10 05:07:42;;;;;;;12.77;9.05;;;;;;;17.02;100.00;92408.16;5170505;27;20050;-87
2022/06/10 05:10:09;;;;;;;14.45;9.23;;;;;;;17.10;100.00;92405.03;5172587;27;20073;-88
2022/06/10 05:12:36;;;;;;;15.88;10.50;;;;;;;17.15;100.00;92404.22;5172844;27;20038;-88
2022/06/10 05:15:03;;;;;;;13.23;8.77;;;;;;;17.28;100.00;92416.59;5172729;27;20038;-89
2022/06/10 05:17:32;;;;;;;13.00;8.18;;;;;;;17.26;100.00;92400.50;5168984;27;20061;-88
2022/06/10 05:19:58;;;;;;;13.10;8.88;;;;;;;17.40;100.00;92411.03;5171167;27;20417;-88
2022/06/10 05:22:25;;;;;;;13.15;8.23;;;;;;;17.49;100.00;92416.41;5172206;27;20042;-87
2022/06/10 05:24:53;;;;;;;13.80;8.25;;;;;;;17.47;100.00;92408.91;5172766;27;20050;-87
2022/06/10 05:27:38;;;;;;;12.55;7.80;;;;;;;17.60;100.00;92424.91;5172343;27;20045;-89
2022/06/10 05:30:05;;;;;;;13.60;9.30;;;;;;;17.65;100.00;92439.66;5171259;27;20050;-87
2022/06/10 05:32:33;;;;;;;15.63;9.45;;;;;;;17.65;100.00;92435.25;5172140;27;20090;-89
2022/06/10 05:35:00;;;;;;;15.93;10.63;;;;;;;17.69;100.00;92438.09;5170851;27;20042;-87
2022/06/10 05:37:28;;;;;;;15.98;10.63;;;;;;;17.66;100.00;92433.41;5172548;27;20038;-87
2022/06/10 05:39:56;;;;;;;18.27;10.80;;;;;;;17.63;100.00;92434.75;5171593;27;20041;-88
2022/06/10 05:42:23;;;;;;;15.95;10.75;;;;;;;17.55;100.00;92414.56;5172226;27;20042;-88
2022/06/10 05:44:51;;;;;;;15.52;10.23;;;;;;;17.69;100.00;92436.25;5172883;27;20385;-88
2022/06/10 05:47:21;;;;;;;17.27;9.70;;;;;;;17.69;100.00;92432.88;5172220;27;20042;-87
2022/06/10 05:49:53;;;;;;;16.10;8.70;;;;;;;17.54;100.00;92408.59;5171069;27;20041;-88
2022/06/10 05:52:24;;;;;;;16.08;9.95;;;;;;;17.80;100.00;92436.94;5168954;27;20404;-88
2022/06/10 05:54:52;;;;;;;14.90;9.80;;;;;;;17.88;100.00;92438.94;5172331;27;20075;-87
2022/06/10 05:57:19;;;;;;;13.35;8.82;;;;;;;17.89;100.00;92437.13;5170410;27;20050;-89
2022/06/10 05:59:49;;;;;;;36.92;25.13;;;;;;;17.99;100.00;92444.03;5170011;27;20046;-88
2022/06/10 06:02:17;;;;;;;50.95;34.33;;;;;;;18.05;100.00;92437.75;5172199;27;20411;-89
2022/06/10 06:04:44;;;;;;;27.17;18.23;;;;;;;18.00;100.00;92419.59;5171898;27;20442;-87
2022/06/10 06:07:18;;;;;;;19.70;12.88;;;;;;;18.00;100.00;92437.78;5170441;27;20094;-86
2022/06/10 06:09:45;;;;;;;15.50;11.07;;;;;;;17.88;100.00;92422.59;5171346;27;20054;-88
2022/06/10 06:12:12;;;;;;;22.35;14.43;;;;;;;17.87;100.00;92419.22;5172144;27;20045;-87
2022/06/10 06:14:39;;;;;;;17.77;12.00;;;;;;;18.03;100.00;92426.88;5171740;27;20180;-88
2022/06/10 06:17:06;;;;;;;14.23;10.93;;;;;;;18.09;100.00;92432.81;5172023;27;20038;-86
2022/06/10 06:19:35;;;;;;;17.90;12.00;;;;;;;17.93;100.00;92424.34;5172346;27;20069;-88
2022/06/10 06:22:02;;;;;;;20.88;12.93;;;;;;;17.60;100.00;92430.09;5172593;27;20050;-88
2022/06/10 06:24:30;;;;;;;19.20;12.50;;;;;;;17.44;100.00;92430.22;5172667;27;20054;-88
2022/06/10 06:26:57;;;;;;;22.27;13.93;;;;;;;17.55;100.00;92427.56;5171571;27;20086;-87
2022/06/10 06:29:24;;;;;;;25.50;14.43;;;;;;;17.39;100.00;92424.31;5173340;27;20049;-87
2022/06/10 06:31:52;;;;;;;24.08;13.93;;;;;;;17.15;100.00;92414.59;5174854;27;20114;-86
2022/06/10 06:34:20;;;;;;;22.90;13.45;;;;;;;17.30;100.00;92421.50;5175173;27;20049;-87
2022/06/10 06:36:48;;;;;;;21.00;13.55;;;;;;;17.24;100.00;92428.56;5174821;27;20064;-86
2022/06/10 06:39:17;;;;;;;20.23;13.30;;;;;;;17.50;100.00;92426.53;5174160;27;20042;-88
2022/06/10 06:41:46;;;;;;;21.25;12.68;;;;;;;17.73;100.00;92434.66;5174829;27;20567;-86
2022/06/10 06:44:17;;;;;;;20.38;12.38;;;;;;;17.68;100.00;92437.28;5174754;27;20045;-86
2022/06/10 06:47:26;;;;;;;20.83;12.32;;;;;;;17.82;100.00;92434.84;5174926;27;20034;-86
2022/06/10 06:49:53;;;;;;;17.00;10.30;;;;;;;17.72;100.00;92411.56;5171407;27;20058;-85
2022/06/10 06:52:19;;;;;;;20.17;12.02;;;;;;;18.10;100.00;92432.53;5173501;27;20082;-87
2022/06/10 06:54:46;;;;;;;19.92;12.30;;;;;;;18.32;100.00;92446.09;5174316;27;20042;-86
2022/06/10 06:57:15;;;;;;;19.42;11.73;;;;;;;18.50;100.00;92436.78;5175697;27;20453;-86
2022/06/10 06:59:42;;;;;;;19.27;11.52;;;;;;;18.66;100.00;92440.00;5175571;27;20547;-87
2022/06/10 07:02:12;;;;;;;16.50;9.65;;;;;;;18.56;100.00;92441.66;5175533;27;20049;-86
2022/06/10 07:04:38;;;;;;;13.23;9.43;;;;;;;18.69;100.00;92442.03;5174386;27;20392;-86
2022/06/10 07:07:06;;;;;;;14.93;9.57;;;;;;;18.66;100.00;92432.97;5173870;27;20441;-86
2022/06/10 07:09:33;;;;;;;13.23;8.23;;;;;;;18.81;100.00;92424.22;5174037;27;20046;-85
2022/06/10 07:12:00;;;;;;;11.30;7.25;;;;;;;18.99;100.00;92436.72;5174395;27;20046;-89
2022/06/10 07:14:28;;;;;;;10.73;7.65;;;;;;;18.84;100.00;92422.84;5174937;27;20053;-91
2022/06/10 07:16:55;;;;;;;11.50;7.50;;;;;;;18.83;100.00;92422.09;5174940;27;20038;-88
2022/06/10 07:19:23;;;;;;;10.95;7.13;;;;;;;18.65;100.00;92415.81;5175223;27;20536;-86
2022/06/10 07:21:50;;;;;;;9.23;6.47;;;;;;;18.54;100.00;92430.00;5173298;27;20484;-90
2022/06/10 07:24:17;;;;;;;7.93;5.78;;;;;;;18.57;100.00;92434.66;5174756;27;20140;-87
2022/06/10 07:26:44;;;;;;;7.90;5.13;;;;;;;18.48;100.00;92441.50;5174788;27;20042;-87
2022/06/10 07:29:11;;;;;;;7.85;5.85;;;;;;;18.49;100.00;92438.63;5174776;27;20046;-88
2022/06/10 07:31:41;;;;;;;7.97;5.60;;;;;;;18.92;100.00;92437.84;5174724;27;20077;-87
2022/06/10 07:34:09;;;;;;;10.00;5.65;;;;;;;18.60;100.00;92420.31;5171758;27;20046;-86
2022/06/10 07:36:37;;;;;;;9.25;5.30;;;;;;;18.54;100.00;92441.19;5157756;27;20506;-91
2022/06/10 07:39:04;;;;;;;7.25;5.68;;;;;;;18.43;100.00;92444.94;5166230;27;20050;-89
2022/06/10 07:44:28;;;;;;;6.13;5.13;;;;;;;18.77;100.00;92441.44;5109602;28;20188;-89
2022/06/10 07:47:02;;;;;;;8.18;4.95;;;;;;;17.96;100.00;92439.41;5159125;27;20385;-89
2022/06/10 07:49:29;;;;;;;5.15;3.95;;;;;;;18.18;100.00;92440.78;5173305;27;20042;-89
2022/06/10 07:51:57;;;;;;;6.45;4.30;;;;;;;18.39;100.00;92444.72;5174789;27;20452;-90
2022/06/10 07:54:26;;;;;;;6.28;4.78;;;;;;;18.51;100.00;92443.56;5169554;27;20061;-92
2022/06/10 07:56:54;;;;;;;6.30;4.03;;;;;;;18.61;100.00;92447.88;5172781;27;20263;-94
2022/06/10 07:59:42;;;;;;;5.63;4.20;;;;;;;18.39;100.00;92441.34;5173927;27;20042;-89
2022/06/10 08:02:10;;;;;;;6.03;4.55;;;;;;;18.01;100.00;92445.31;5168970;27;20129;-90
2022/06/10 08:04:37;;;;;;;4.63;3.75;;;;;;;18.11;100.00;92430.72;5173107;27;20649;-87
2022/06/10 08:07:04;;;;;;;5.07;3.78;;;;;;;18.30;100.00;92438.59;5173319;27;20046;-89
2022/06/10 08:09:30;;;;;;;5.63;4.32;;;;;;;18.53;100.00;92451.84;5174634;27;20053;-89
2022/06/10 08:11:57;;;;;;;9.38;4.63;;;;;;;18.55;100.00;92442.72;5172445;27;20495;-85
2022/06/10 08:14:26;;;;;;;5.63;3.83;;;;;;;18.30;100.00;92436.75;5174326;27;20109;-88
2022/06/10 08:16:56;;;;;;;6.22;4.47;;;;;;;18.15;100.00;92437.69;5172860;27;20046;-87
2022/06/10 08:19:24;;;;;;;5.78;4.47;;;;;;;18.26;100.00;92455.78;5172926;27;20057;-86
2022/06/10 08:24:35;;;;;;;6.78;4.22;;;;;;;18.72;100.00;92459.69;5174656;27;20404;-87
2022/06/10 08:27:02;;;;;;;8.00;4.78;;;;;;;18.78;100.00;92469.00;5175166;27;20141;-86
2022/06/10 08:29:30;;;;;;;6.13;4.65;;;;;;;18.89;100.00;92474.81;5174688;27;20402;-88
2022/06/10 08:31:57;;;;;;;6.43;4.50;;;;;;;18.92;100.00;92482.09;5173263;27;20042;-86
2022/06/10 08:34:26;;;;;;;8.32;4.25;;;;;;;18.76;100.00;92458.09;5172203;27;20042;-85
2022/06/10 08:36:53;;;;;;;6.03;4.45;;;;;;;19.12;100.00;92484.75;5169881;27;20046;-86
2022/06/10 08:39:20;;;;;;;5.85;4.40;;;;;;;19.26;100.00;92479.59;5164623;27;21591;-87
2022/06/10 08:42:08;;;;;;;6.10;4.72;;;;;;;19.32;100.00;92488.91;5173129;27;20035;-86
2022/06/10 08:44:41;;;;;;;7.43;3.85;;;;;;;18.91;100.00;92485.75;5173914;27;20415;-84
2022/06/10 08:47:27;;;;;;;7.65;4.50;;;;;;;18.86;100.00;92453.81;5172503;27;20136;-86
2022/06/10 08:50:12;;;;;;;6.30;4.47;;;;;;;18.74;100.00;92486.19;5174137;27;20078;-85
2022/06/10 08:52:54;;;;;;;6.68;4.57;;;;;;;18.06;100.00;92478.31;5173352;27;20054;-86
2022/06/10 08:55:43;;;;;;;5.97;4.68;;;;;;;18.00;100.00;92479.38;5173211;27;20045;-85
2022/06/10 08:58:16;;;;;;;6.88;4.40;;;;;;;18.17;100.00;92473.81;5173392;27;20038;-85
2022/06/10 09:00:44;;;;;;;6.60;4.57;;;;;;;18.40;100.00;92467.06;5172451;27;20129;-85
2022/06/10 09:03:18;;;;;;;6.38;4.70;;;;;;;18.84;100.00;92480.09;5173046;27;20043;-85
2022/06/10 09:05:51;;;;;;;6.57;4.75;;;;;;;18.79;100.00;92480.19;5171615;27;20453;-83
2022/06/10 09:08:21;;;;;;;7.88;5.00;;;;;;;18.82;100.00;92484.81;5171946;27;20511;-84
2022/06/10 09:10:54;;;;;;;6.45;4.80;;;;;;;19.02;100.00;92486.38;5166962;27;20499;-85
2022/06/10 09:13:35;;;;;;;8.02;4.97;;;;;;;19.00;100.00;92490.31;5172619;27;20041;-84
2022/06/10 09:16:09;;;;;;;6.95;3.83;;;;;;;18.95;100.00;92480.75;5171097;27;20040;-81
2022/06/10 09:18:44;;;;;;;6.80;4.20;;;;;;;19.18;100.00;92487.00;5170442;27;20077;-81
2022/06/10 09:21:20;;;;;;;6.40;4.30;;;;;;;19.32;100.00;92481.88;5172275;27;20099;-83
2022/06/10 09:23:48;;;;;;;6.78;4.70;;;;;;;19.81;100.00;92483.50;5171023;27;20043;-81
2022/06/10 09:26:24;;;;;;;6.05;4.15;;;;;;;19.86;100.00;92480.81;5170421;27;20045;-82
2022/06/10 09:28:50;;;;;;;;;;;;;;;19.77;100.00;92499.69;5171867;27;20804;-81
2022/06/10 09:31:33;;;;;;;5.30;3.90;;;;;;;19.31;100.00;92500.38;5170363;27;19918;-82
2022/06/10 09:34:09;;;;;;;5.15;3.92;;;;;;;19.40;100.00;92501.28;5170702;27;20038;-82
2022/06/10 09:36:43;;;;;;;5.30;3.53;;;;;;;19.57;100.00;92498.19;5171654;27;20042;-83
2022/06/10 09:42:11;;;;;;;5.75;4.20;;;;;;;20.08;100.00;92503.69;5170073;27;20119;-81
2022/06/10 09:44:47;;;;;;;5.60;4.32;;;;;;;19.60;100.00;92489.03;5170834;27;20053;-83
2022/06/10 09:47:24;;;;;;;6.80;4.60;;;;;;;19.43;100.00;92495.50;5170521;27;20046;-83
2022/06/10 09:50:07;;;;;;;10.88;5.00;;;;;;;19.44;100.00;92484.03;5170749;27;20046;-83
2022/06/10 09:52:44;;;;;;;5.95;4.60;;;;;;;19.48;100.00;92486.84;5171178;27;20571;-83
2022/06/10 09:55:32;;;;;;;6.05;5.00;;;;;;;19.36;100.00;92498.47;5171206;27;20512;-81
2022/06/10 09:58:13;;;;;;;7.75;4.53;;;;;;;19.10;100.00;92503.25;5171907;27;20051;-83
2022/06/10 10:00:48;;;;;;;7.97;5.70;;;;;;;19.33;100.00;92499.03;5170864;27;20042;-82
2022/06/10 10:03:39;;;;;;;7.65;5.32;;;;;;;19.19;100.00;92459.91;5172167;27;20066;-82
2022/06/10 10:06:26;;;;;;;6.88;5.07;;;;;;;19.40;100.00;92490.09;5170500;27;20042;-82
2022/06/10 10:09:02;;;;;;;5.90;4.50;;;;;;;19.65;100.00;92495.97;5170957;27;20053;-83
2022/06/10 10:11:36;;;;;;;6.75;4.80;;;;;;;19.23;100.00;92499.97;5171395;27;20042;-81
2022/06/10 10:14:12;;;;;;;7.78;4.85;;;;;;;19.21;100.00;92496.09;5169802;27;20476;-83
2022/06/10 10:16:54;;;;;;;7.63;5.15;;;;;;;19.00;100.00;92491.09;5172172;27;20113;-83
2022/06/10 10:19:47;;;;;;;9.05;4.70;;;;;;;19.00;100.00;92474.69;5170308;27;20046;-81
2022/06/10 10:22:44;;;;;;;6.25;4.10;;;;;;;18.73;100.00;92489.06;5171502;27;20050;-82
2022/06/10 10:25:18;;;;;;;5.78;4.18;;;;;;;18.55;100.00;92483.56;5170961;27;20070;-82
2022/06/10 10:27:47;;;;;;;5.95;4.00;;;;;;;18.16;100.00;92467.81;5175643;27;20538;-81
2022/06/10 10:30:22;;;;;;;4.85;3.20;;;;;;;18.50;100.00;92492.19;5174182;27;20083;-83
2022/06/10 10:32:54;;;;;;;6.75;3.22;;;;;;;18.38;100.00;92497.75;5175646;27;20046;-83
2022/06/10 10:35:23;;;;;;;4.88;2.72;;;;;;;18.34;100.00;92493.41;5175816;27;20038;-84
2022/06/10 10:37:57;;;;;;;4.47;2.70;;;;;;;18.10;100.00;92494.91;5172923;27;20038;-85
2022/06/10 10:40:36;;;;;;;7.95;2.85;;;;;;;17.68;100.00;92494.44;5173542;27;20156;-83
2022/06/10 10:43:07;;;;;;;4.00;2.60;;;;;;;17.49;100.00;92500.28;5172843;27;20046;-84
2022/06/10 10:45:39;;;;;;;4.75;3.03;;;;;;;17.58;100.00;92494.50;5174605;27;20066;-83
2022/06/10 10:48:16;;;;;;;7.13;3.10;;;;;;;17.19;100.00;92472.69;5173778;27;20042;-83
2022/06/10 10:50:54;;;;;;;4.40;3.38;;;;;;;17.36;100.00;92473.09;5174340;27;20035;-85
2022/06/10 10:53:25;;;;;;;4.63;3.10;;;;;;;17.26;100.00;92467.22;5175427;27;20048;-88
2022/06/10 10:55:57;;;;;;;5.00;3.25;;;;;;;17.27;100.00;92460.97;5175527;27;20053;-81
2022/06/10 10:58:28;;;;;;;6.43;3.50;;;;;;;17.56;100.00;92468.81;5173587;27;20045;-81
2022/06/10 11:00:59;;;;;;;5.03;3.85;;;;;;;17.67;100.00;92473.94;5173248;27;20075;-83
2022/06/10 11:03:28;;;;;;;5.72;4.15;;;;;;;17.63;100.00;92477.06;5173399;27;20947;-85
2022/06/10 11:05:56;;;;;;;4.82;3.80;;;;;;;17.89;100.00;92481.28;5173059;27;20425;-86
2022/06/10 11:08:30;;;;;;;4.10;3.28;;;;;;;17.87;100.00;92460.78;5174178;27;20141;-83
2022/06/10 11:11:14;;;;;;;6.30;3.38;;;;;;;18.11;100.00;92474.91;5174117;27;20133;-79
2022/06/10 11:13:51;;;;;;;5.93;4.10;;;;;;;18.29;100.00;92481.22;5173712;27;20348;-84
2022/06/10 11:16:36;;;;;;;5.82;3.22;;;;;;;18.38;100.00;92481.41;5173293;27;20042;-83
2022/06/10 11:19:11;;;;;;;3.83;3.17;;;;;;;18.62;100.00;92475.41;5176393;27;20045;-82
2022/06/10 11:21:50;;;;;;;4.45;3.30;;;;;;;18.78;100.00;92474.19;5174774;27;20041;-82
2022/06/10 11:24:18;;;;;;;3.92;2.90;;;;;;;18.57;100.00;92478.88;5170626;27;20054;-83
2022/06/10 11:26:53;;;;;;;6.20;3.40;;;;;;;18.44;100.00;92493.28;5169955;27;20042;-87
2022/06/10 11:29:22;;;;;;;4.07;2.70;;;;;;;18.41;100.00;92478.22;5172986;27;21049;-85
2022/06/10 11:31:51;;;;;;;4.15;3.08;;;;;;;18.64;100.00;92489.69;5172058;27;20046;-86
2022/06/10 11:34:22;;;;;;;4.25;2.97;;;;;;;18.38;100.00;92481.41;5174630;27;20053;-82
2022/06/10 11:36:57;;;;;;;5.53;3.65;;;;;;;18.75;100.00;92482.53;5174290;27;20061;-86
2022/06/10 11:39:27;;;;;;;9.30;5.30;;;;;;;18.25;100.00;92490.63;5167752;27;20066;-82
2022/06/10 11:42:07;;;;;;;7.13;3.92;;;;;;;18.29;100.00;92489.78;5174675;27;20111;-82
2022/06/10 11:44:41;;;;;;;19.50;8.13;;;;;;;18.58;100.00;92487.41;5173769;27;20042;-81
2022/06/10 11:47:14;;;;;;;37.78;15.40;;;;;;;18.16;100.00;92487.84;5172937;27;20057;-86
2022/06/10 11:49:47;;;;;;;21.90;10.35;;;;;;;18.07;100.00;92482.47;5172336;27;20448;-84
2022/06/10 11:52:25;;;;;;;13.98;8.45;;;;;;;18.38;100.00;92474.34;5172855;27;20057;-86
2022/06/10 11:55:00;;;;;;;8.57;6.00;;;;;;;18.45;100.00;92468.06;5174150;27;20097;-82
2022/06/10 12:00:23;;;;;;;12.25;6.80;;;;;;;18.73;100.00;92482.06;5173361;27;20053;-83
2022/06/10 12:02:59;;;;;;;9.35;5.07;;;;;;;19.05;100.00;92477.28;5173837;27;20537;-87